CDT,Max TemperatureF,Mean TemperatureF,Min TemperatureF,Max Dew PointF,MeanDew PointF,Min DewpointF,Max Humidity, Mean Humidity, Min Humidity, Max Sea Level PressureIn, Mean Sea Level PressureIn, Min Sea Level PressureIn, Max VisibilityMiles, Mean VisibilityMiles, Min VisibilityMiles, Max Wind SpeedMPH, Mean Wind SpeedMPH, Max Gust SpeedMPH,PrecipitationIn, CloudCover, Events, WindDirDegrees
2013-9-1,90,83,75,78,74,72,94,79,63,29.95,29.91,29.87,10,8,4,17,4,24,0.09,2,Thunderstorm,263
2013-9-2,92,83,73,77,74,70,94,75,56,30.00,29.94,29.90,10,8,1,20,5,28,0.78,4,Rain-Thunderstorm,244
2013-9-3,91,83,74,77,74,71,94,79,63,30.00,29.96,29.92,10,9,2,18,4,24,0.15,3,Rain,280
2013-9-4,90,82,73,77,74,72,94,79,63,30.09,30.04,29.98,10,9,4,15,4,17,0.00,2,,159
2013-9-5,91,83,74,75,73,68,100,77,53,30.13,30.08,30.05,10,10,5,13,4,18,0.00,1,,354
2013-9-6,92,84,75,73,70,67,94,71,47,30.11,30.05,30.00,10,10,7,8,3,10,0.00,1,,38
2013-9-7,91,82,73,75,71,68,88,69,50,30.06,30.02,29.99,10,10,10,16,4,20,T,1,Rain,75
2013-9-8,90,82,74,75,71,67,100,74,47,30.01,29.98,29.95,10,8,0,12,4,14,0.00,0,Fog,156
2013-9-9,91,83,74,73,70,67,87,67,47,30.06,30.02,29.97,10,10,8,13,5,16,0.00,0,,239
2013-9-10,89,83,77,75,72,69,85,69,52,30.14,30.09,30.04,10,10,9,17,6,21,0.00,2,,87
2013-9-11,90,83,75,73,70,67,85,66,47,30.14,30.09,30.04,10,10,10,10,7,,0.00,0,,121
2013-9-12,90,83,76,72,70,69,87,70,52,30.05,30.00,29.93,10,10,10,12,6,20,0.00,1,,150
2013-9-13,93,84,74,72,70,66,87,67,47,29.94,29.89,29.82,10,10,9,12,6,14,0.00,1,,291
2013-9-14,89,82,75,72,67,63,79,63,46,30.00,29.93,29.86,10,10,9,12,6,15,0.00,2,,16
2013-9-15,90,82,73,73,68,62,79,67,55,30.07,30.03,29.99,10,10,10,12,5,18,0.00,0,,120
2013-9-16,91,83,74,76,73,72,94,77,59,30.09,30.05,30.01,10,9,2,18,6,24,0.52,3,Rain-Thunderstorm,76
2013-9-17,91,82,73,75,72,70,93,75,56,30.09,30.04,29.99,10,10,9,15,5,21,0.03,1,,81
2013-9-18,88,82,75,74,72,70,88,74,59,30.09,30.06,30.03,10,10,2,14,5,20,0.23,4,Rain,81
2013-9-19,86,80,73,74,70,67,87,71,55,30.09,30.04,30.01,10,10,10,16,7,21,0.00,0,,109
2013-9-20,89,82,75,75,73,70,88,72,55,30.03,29.95,29.87,10,10,10,17,9,22,T,1,,124
2013-9-21,84,80,75,75,74,72,94,84,74,29.86,29.79,29.74,10,8,2,20,4,23,0.60,5,Rain,203
2013-9-22,78,74,70,74,70,67,97,90,82,29.81,29.77,29.74,10,8,2,12,7,16,0.22,6,Rain,19
2013-9-23,87,80,73,76,73,70,93,78,63,29.90,29.84,29.79,10,10,5,13,6,16,0.05,5,Rain,86
2013-9-24,81,77,72,77,73,70,94,90,85,29.91,29.85,29.78,10,7,0,8,5,9,2.69,7,Fog-Rain-Thunderstorm,87
2013-9-25,89,80,71,74,71,69,94,73,52,29.82,29.79,29.75,10,10,10,12,4,15,0.06,4,,348
2013-9-26,89,80,70,73,68,65,90,70,50,29.96,29.89,29.82,10,10,9,10,5,15,0.00,1,,36
2013-9-27,85,77,68,65,62,60,87,66,44,30.06,30.01,29.96,10,10,10,10,5,16,0.00,0,,65
2013-9-28,85,75,65,64,61,59,81,62,43,30.10,30.06,30.02,10,10,10,10,5,15,0.00,0,,55
2013-9-29,83,74,65,67,63,59,84,69,54,30.06,30.02,29.96,10,10,10,9,4,14,0.00,1,,86
2013-9-30,85,78,70,69,66,63,84,68,51,30.01,29.97,29.94,10,10,10,8,4,12,0.01,3,Rain,65